createdAt,value
2016-12-22T00:00:50.831Z,99.99
2016-12-22T00:02:01.843Z,99.99
2016-12-22T00:03:13.023Z,99.99
2016-12-22T00:04:24.012Z,99.99
2016-12-22T00:05:35.001Z,99.99
2016-12-22T00:06:45.992Z,99.99
2016-12-22T00:07:57.210Z,99.99
2016-12-22T00:09:08.202Z,99.99
2016-12-22T00:10:19.183Z,99.99
2016-12-22T00:11:30.166Z,99.99
2016-12-22T00:12:41.347Z,99.99
2016-12-22T00:13:52.346Z,99.99
2016-12-22T00:15:03.336Z,99.99
2016-12-22T00:16:14.327Z,99.99
2016-12-22T00:17:25.310Z,99.99
2016-12-22T00:18:36.303Z,99.99
2016-12-22T00:19:47.284Z,99.99
2016-12-22T00:20:58.277Z,99.99
2016-12-22T00:22:09.466Z,99.99
2016-12-22T00:23:20.443Z,99.99
2016-12-22T00:24:31.424Z,99.99
2016-12-22T00:25:42.428Z,99.99
2016-12-22T00:26:53.425Z,99.99
2016-12-22T00:28:04.408Z,99.99
2016-12-22T00:29:15.387Z,99.99
2016-12-22T00:30:26.607Z,99.99
2016-12-22T00:31:37.601Z,99.99
2016-12-22T00:32:48.588Z,99.99
2016-12-22T00:33:59.572Z,99.99
2016-12-22T00:35:10.561Z,99.99
2016-12-22T00:36:21.549Z,99.99
2016-12-22T00:37:32.546Z,99.99
2016-12-22T00:38:43.735Z,99.99
2016-12-22T00:39:54.718Z,99.99
2016-12-22T00:41:05.696Z,99.99
2016-12-22T00:42:16.879Z,99.99
2016-12-22T00:43:27.869Z,99.99
2016-12-22T00:44:39.054Z,99.99
2016-12-22T00:45:50.041Z,99.99
2016-12-22T00:47:01.026Z,99.99
2016-12-22T00:48:12.015Z,99.99
2016-12-22T00:49:22.997Z,99.99
2016-12-22T00:50:33.977Z,99.99
2016-12-22T00:51:44.957Z,99.99
2016-12-22T00:52:55.934Z,99.99
2016-12-22T00:54:06.921Z,99.99
2016-12-22T00:55:17.940Z,99.99
2016-12-22T00:56:28.960Z,99.99
2016-12-22T00:57:40.147Z,99.99
2016-12-22T00:58:51.124Z,99.99
2016-12-22T01:00:02.164Z,99.99
2016-12-22T01:01:13.150Z,99.99
2016-12-22T01:02:24.137Z,99.99
2016-12-22T01:03:35.122Z,99.99
2016-12-22T01:04:46.107Z,99.99
2016-12-22T01:05:57.088Z,99.99
2016-12-22T01:07:08.083Z,99.99
2016-12-22T01:08:19.070Z,99.99
2016-12-22T01:09:30.064Z,99.99
2016-12-22T01:10:41.296Z,99.99
2016-12-22T01:11:52.280Z,99.99
2016-12-22T01:13:03.267Z,99.99
2016-12-22T01:14:14.248Z,99.99
2016-12-22T01:15:25.287Z,99.99
2016-12-22T01:16:36.278Z,99.99
2016-12-22T01:17:47.261Z,99.99
2016-12-22T01:18:58.243Z,99.99
2016-12-22T01:20:09.269Z,99.99
2016-12-22T01:21:20.460Z,99.99
2016-12-22T01:22:31.848Z,99.99
2016-12-22T01:23:43.039Z,99.99
2016-12-22T01:24:54.021Z,99.99
2016-12-22T01:26:05.011Z,99.99
2016-12-22T01:27:15.997Z,99.99
2016-12-22T01:28:26.991Z,99.99
2016-12-22T01:29:37.977Z,99.99
2016-12-22T01:30:49.015Z,99.99
2016-12-22T01:32:00.012Z,99.99
2016-12-22T01:33:11.002Z,99.99
2016-12-22T01:34:21.989Z,99.99
2016-12-22T01:35:33.173Z,99.99
2016-12-22T01:36:44.358Z,99.99
2016-12-22T01:37:55.345Z,99.99
2016-12-22T01:39:06.331Z,99.99
2016-12-22T01:40:17.319Z,99.99
2016-12-22T01:41:28.306Z,99.99
2016-12-22T01:42:39.288Z,99.99
2016-12-22T01:43:50.279Z,99.99
2016-12-22T01:45:01.259Z,99.99
2016-12-22T01:46:12.262Z,99.99
2016-12-22T01:47:23.249Z,99.99
2016-12-22T01:48:34.457Z,99.99
2016-12-22T01:49:45.444Z,99.99
2016-12-22T01:50:56.428Z,99.99
2016-12-22T01:52:07.417Z,99.99
2016-12-22T01:53:18.618Z,99.99
2016-12-22T01:54:29.624Z,99.99
2016-12-22T01:55:40.606Z,99.99
2016-12-22T01:56:51.591Z,99.99
2016-12-22T01:58:02.576Z,99.99
2016-12-22T01:59:13.568Z,99.99
2016-12-22T02:00:24.544Z,99.99
2016-12-22T02:01:35.526Z,99.99
2016-12-22T02:02:46.503Z,99.99
2016-12-22T02:03:57.490Z,99.99
2016-12-22T02:05:08.686Z,99.99
2016-12-22T02:06:19.668Z,99.99
2016-12-22T02:07:30.648Z,99.99
2016-12-22T02:08:42.031Z,99.99
2016-12-22T02:09:53.025Z,99.99
2016-12-22T02:11:04.013Z,99.99
2016-12-22T02:12:14.996Z,99.99
2016-12-22T02:13:25.981Z,99.99
2016-12-22T02:14:36.966Z,99.99
2016-12-22T02:15:48.005Z,99.99
2016-12-22T02:16:58.988Z,99.99
2016-12-22T02:18:10.005Z,99.99
2016-12-22T02:19:21.192Z,99.99
2016-12-22T02:20:32.172Z,99.99
2016-12-22T02:21:43.188Z,99.99
2016-12-22T02:22:54.174Z,99.99
2016-12-22T02:24:05.164Z,99.99
2016-12-22T02:25:16.355Z,99.99
2016-12-22T02:26:27.355Z,99.99
2016-12-22T02:27:38.348Z,99.99
2016-12-22T02:28:49.343Z,99.99
2016-12-22T02:30:00.337Z,99.99
2016-12-22T02:31:11.619Z,99.99
2016-12-22T02:32:22.608Z,99.99
2016-12-22T02:33:33.793Z,99.99
2016-12-22T02:34:44.772Z,99.99
2016-12-22T02:35:55.822Z,99.99
2016-12-22T02:37:06.845Z,99.99
2016-12-22T02:38:17.832Z,99.99
2016-12-22T02:39:29.213Z,99.99
2016-12-22T02:40:40.188Z,99.99
2016-12-22T02:41:51.177Z,99.99
2016-12-22T02:43:02.164Z,99.99
2016-12-22T02:44:13.161Z,99.99
2016-12-22T02:45:24.386Z,99.99
2016-12-22T02:46:35.371Z,99.99
2016-12-22T02:47:46.359Z,99.99
2016-12-22T02:48:57.350Z,99.99
2016-12-22T02:50:08.393Z,99.99
2016-12-22T02:51:19.375Z,99.99
2016-12-22T02:52:30.355Z,99.99
2016-12-22T02:53:41.339Z,99.99
2016-12-22T02:54:52.327Z,99.99
2016-12-22T02:56:03.512Z,99.99
2016-12-22T02:57:14.498Z,99.99
2016-12-22T02:58:25.479Z,99.99
2016-12-22T02:59:36.464Z,99.99
2016-12-22T03:00:47.496Z,99.99
2016-12-22T03:01:58.475Z,99.99
2016-12-22T03:03:09.656Z,99.99
2016-12-22T03:04:20.639Z,99.99
2016-12-22T03:05:31.671Z,99.99
2016-12-22T03:06:42.695Z,99.99
2016-12-22T03:07:53.692Z,99.99
2016-12-22T03:09:04.677Z,99.99
2016-12-22T03:10:15.860Z,99.99
2016-12-22T03:11:26.849Z,99.99
2016-12-22T03:12:38.253Z,99.99
2016-12-22T03:13:49.246Z,99.99
2016-12-22T03:15:00.238Z,99.99
2016-12-22T03:16:11.441Z,99.99
2016-12-22T03:17:22.429Z,99.99
2016-12-22T03:18:33.426Z,99.99
2016-12-22T03:19:44.414Z,99.99
2016-12-22T03:20:55.403Z,99.99
2016-12-22T03:22:06.589Z,99.99
2016-12-22T03:23:17.580Z,99.99
2016-12-22T03:24:28.564Z,99.99
2016-12-22T03:25:39.552Z,99.99
2016-12-22T03:26:50.535Z,99.99
2016-12-22T03:28:01.565Z,99.99
2016-12-22T03:29:12.553Z,99.99
2016-12-22T03:30:23.746Z,99.99
2016-12-22T03:31:34.933Z,99.99
2016-12-22T03:32:45.921Z,99.99
2016-12-22T03:33:56.910Z,99.99
2016-12-22T03:35:08.098Z,99.99
2016-12-22T03:36:19.093Z,99.99
2016-12-22T03:37:30.079Z,99.99
2016-12-22T03:38:41.092Z,99.99
2016-12-22T03:39:52.279Z,99.99
2016-12-22T03:41:03.263Z,99.99
2016-12-22T03:42:14.244Z,99.99
2016-12-22T03:43:25.236Z,99.99
2016-12-22T03:44:36.223Z,99.99
2016-12-22T03:45:47.208Z,99.99
2016-12-22T03:46:58.199Z,99.99
2016-12-22T03:48:09.198Z,99.99
2016-12-22T03:49:20.187Z,99.99
2016-12-22T03:50:31.174Z,99.99
2016-12-22T03:51:42.155Z,99.99
2016-12-22T03:52:53.140Z,99.99
2016-12-22T03:54:04.127Z,99.99
2016-12-22T03:55:15.110Z,99.99
2016-12-22T03:56:26.112Z,99.99
2016-12-22T03:57:37.095Z,99.99
2016-12-22T03:58:48.079Z,99.99
2016-12-22T03:59:59.056Z,99.99
2016-12-22T04:01:10.248Z,99.99
2016-12-22T04:02:21.437Z,99.99
2016-12-22T04:03:32.420Z,99.99
2016-12-22T04:04:43.410Z,99.99
2016-12-22T04:05:54.397Z,99.99
2016-12-22T04:07:05.388Z,99.99
2016-12-22T04:08:16.577Z,99.96
2016-12-22T04:09:27.569Z,99.99
2016-12-22T04:10:38.560Z,99.99
2016-12-22T04:11:49.578Z,99.99
2016-12-22T04:13:00.778Z,99.99
2016-12-22T04:14:11.758Z,99.99
2016-12-22T04:15:22.937Z,99.99
2016-12-22T04:16:33.926Z,99.99
2016-12-22T04:17:45.115Z,99.99
2016-12-22T04:18:56.104Z,99.99
2016-12-22T04:20:07.093Z,99.99
2016-12-22T04:21:18.078Z,99.99
2016-12-22T04:22:29.078Z,99.99
2016-12-22T04:23:40.073Z,99.99
2016-12-22T04:24:51.054Z,99.99
2016-12-22T04:26:02.039Z,99.99
2016-12-22T04:27:13.022Z,99.99
2016-12-22T04:28:24.236Z,99.77
2016-12-22T04:29:35.222Z,99.96
2016-12-22T04:30:46.268Z,99.96
2016-12-22T04:31:57.247Z,99.67
2016-12-22T04:33:08.228Z,99.99
2016-12-22T04:34:19.216Z,99.86
2016-12-22T04:35:30.209Z,99.48
2016-12-22T04:36:41.250Z,99.2
2016-12-22T04:37:52.229Z,99.86
2016-12-22T04:39:03.217Z,99.1
2016-12-22T04:40:14.210Z,99.29
2016-12-22T04:41:25.194Z,99.01
2016-12-22T04:42:36.230Z,98.63
2016-12-22T04:43:47.444Z,98.82
2016-12-22T04:44:58.450Z,98.72
2016-12-22T04:46:09.672Z,98.72
2016-12-22T04:47:20.864Z,98.16
2016-12-22T04:48:31.896Z,98.25
2016-12-22T04:49:43.106Z,98.44
2016-12-22T04:50:54.090Z,98.44
2016-12-22T04:52:05.283Z,98.54
2016-12-22T04:53:16.300Z,98.44
2016-12-22T04:54:27.542Z,98.35
2016-12-22T04:55:38.929Z,98.63
2016-12-22T04:56:49.916Z,98.16
2016-12-22T04:58:00.892Z,98.44
2016-12-22T04:59:11.887Z,98.35
2016-12-22T05:00:22.878Z,98.35
2016-12-22T05:01:33.860Z,98.44
2016-12-22T05:02:44.852Z,98.82
2016-12-22T05:03:55.832Z,98.54
2016-12-22T05:05:06.818Z,98.44
2016-12-22T05:06:18.009Z,98.82
2016-12-22T05:07:28.992Z,98.25
2016-12-22T05:08:39.982Z,98.25
2016-12-22T05:09:50.971Z,98.63
2016-12-22T05:11:01.955Z,98.72
2016-12-22T05:12:12.937Z,98.82
2016-12-22T05:13:23.924Z,98.35
2016-12-22T05:14:34.914Z,98.63
2016-12-22T05:15:45.902Z,98.35
2016-12-22T05:16:57.083Z,98.54
2016-12-22T05:18:08.075Z,98.72
2016-12-22T05:19:19.270Z,98.35
2016-12-22T05:20:30.251Z,98.25
2016-12-22T05:21:41.232Z,98.25
2016-12-22T05:22:52.446Z,98.25
2016-12-22T05:24:03.444Z,98.25
2016-12-22T05:25:14.436Z,98.06
2016-12-22T05:26:25.623Z,98.06
2016-12-22T05:27:36.611Z,98.16
2016-12-22T05:28:47.615Z,97.97
2016-12-22T05:29:58.604Z,98.16
2016-12-22T05:31:09.585Z,98.06
2016-12-22T05:32:20.968Z,98.06
2016-12-22T05:33:31.960Z,98.63
2016-12-22T05:34:43.157Z,98.06
2016-12-22T05:35:54.166Z,97.87
2016-12-22T05:37:05.166Z,97.87
2016-12-22T05:38:16.353Z,97.78
2016-12-22T05:39:27.345Z,98.16
2016-12-22T05:40:38.388Z,97.78
2016-12-22T05:41:49.375Z,97.49
2016-12-22T05:43:00.360Z,97.68
2016-12-22T05:44:11.542Z,97.59
2016-12-22T05:45:22.571Z,98.06
2016-12-22T05:46:33.757Z,97.97
2016-12-22T05:47:44.936Z,97.87
2016-12-22T05:48:55.923Z,97.78
2016-12-22T05:50:06.947Z,97.87
2016-12-22T05:51:18.182Z,97.87
2016-12-22T05:52:29.166Z,97.68
2016-12-22T05:53:40.353Z,97.97
2016-12-22T05:54:51.340Z,97.97
2016-12-22T05:56:02.324Z,98.63
2016-12-22T05:57:13.363Z,97.87
2016-12-22T05:58:24.548Z,98.06
2016-12-22T05:59:35.734Z,97.87
2016-12-22T06:00:46.920Z,98.06
2016-12-22T06:01:57.896Z,97.78
2016-12-22T06:03:08.926Z,98.35
2016-12-22T06:04:19.934Z,98.06
2016-12-22T06:05:30.918Z,97.97
2016-12-22T06:06:41.908Z,98.25
2016-12-22T06:07:52.903Z,98.06
2016-12-22T06:09:03.939Z,98.63
2016-12-22T06:10:14.925Z,98.63
2016-12-22T06:11:25.910Z,98.54
2016-12-22T06:12:36.891Z,98.25
2016-12-22T06:13:48.277Z,98.06
2016-12-22T06:14:59.514Z,97.87
2016-12-22T06:16:10.498Z,98.06
2016-12-22T06:17:21.486Z,97.87
2016-12-22T06:18:32.471Z,98.35
2016-12-22T06:19:43.455Z,97.87
2016-12-22T06:20:54.442Z,98.06
2016-12-22T06:22:05.628Z,97.68
2016-12-22T06:23:16.614Z,97.97
2016-12-22T06:24:27.594Z,98.06
2016-12-22T06:25:38.592Z,97.87
2016-12-22T06:26:49.779Z,97.87
2016-12-22T06:28:00.761Z,97.97
2016-12-22T06:29:11.743Z,97.59
2016-12-22T06:30:22.727Z,97.59
2016-12-22T06:31:33.717Z,97.3
2016-12-22T06:32:44.711Z,97.4
2016-12-22T06:33:55.696Z,97.21
2016-12-22T06:35:06.935Z,97.59
2016-12-22T06:36:18.115Z,97.4
2016-12-22T06:37:29.114Z,97.02
2016-12-22T06:38:40.303Z,97.21
2016-12-22T06:39:51.284Z,97.02
2016-12-22T06:41:02.322Z,97.3
2016-12-22T06:42:13.305Z,97.02
2016-12-22T06:43:24.291Z,97.3
2016-12-22T06:44:35.485Z,97.3
2016-12-22T06:45:46.483Z,96.83
2016-12-22T06:46:57.474Z,96.73
2016-12-22T06:48:08.667Z,97.3
2016-12-22T06:49:19.851Z,97.49
2016-12-22T06:50:30.887Z,97.49
2016-12-22T06:51:41.874Z,97.59
2016-12-22T06:52:53.051Z,97.3
2016-12-22T06:54:04.043Z,97.97
2016-12-22T06:55:15.023Z,97.3
2016-12-22T06:56:26.012Z,97.4
2016-12-22T06:57:36.994Z,97.21
2016-12-22T06:58:47.980Z,97.59
2016-12-22T06:59:58.967Z,97.49
2016-12-22T07:01:09.950Z,96.92
2016-12-22T07:02:21.139Z,97.49
2016-12-22T07:03:32.118Z,97.49
2016-12-22T07:04:43.102Z,97.02
2016-12-22T07:05:54.295Z,97.21
2016-12-22T07:07:05.480Z,96.92
2016-12-22T07:08:16.672Z,97.11
2016-12-22T07:09:27.662Z,97.11
2016-12-22T07:10:38.699Z,97.21
2016-12-22T07:11:49.708Z,97.11
2016-12-22T07:13:00.895Z,96.83
2016-12-22T07:14:12.077Z,97.11
2016-12-22T07:15:23.063Z,96.92
2016-12-22T07:16:34.134Z,96.83
2016-12-22T07:17:45.115Z,96.83
2016-12-22T07:18:56.099Z,96.92
2016-12-22T07:20:07.083Z,96.07
2016-12-22T07:21:18.071Z,96.83
2016-12-22T07:22:29.258Z,96.73
2016-12-22T07:23:40.249Z,96.55
2016-12-22T07:24:51.264Z,96.07
2016-12-22T07:26:02.248Z,96.36
2016-12-22T07:27:13.230Z,96.45
2016-12-22T07:28:24.256Z,96.55
2016-12-22T07:29:35.277Z,96.55
2016-12-22T07:30:46.257Z,96.26
2016-12-22T07:31:57.241Z,96.17
2016-12-22T07:33:08.431Z,96.07
2016-12-22T07:34:19.440Z,96.17
2016-12-22T07:35:30.431Z,96.07
2016-12-22T07:36:41.411Z,95.88
2016-12-22T07:37:52.397Z,95.69
2016-12-22T07:39:03.379Z,95.5
2016-12-22T07:40:14.413Z,95.22
2016-12-22T07:41:25.390Z,95.12
2016-12-22T07:42:36.380Z,95.31
2016-12-22T07:43:47.367Z,95.22
2016-12-22T07:44:58.354Z,95.12
2016-12-22T07:46:09.334Z,94.74
2016-12-22T07:47:20.313Z,94.84
2016-12-22T07:48:31.295Z,94.84
2016-12-22T07:49:42.284Z,95.03
2016-12-22T07:50:53.265Z,94.46
2016-12-22T07:52:04.254Z,94.74
2016-12-22T07:53:15.237Z,94.93
2016-12-22T07:54:26.223Z,94.18
2016-12-22T07:55:37.211Z,94.46
2016-12-22T07:56:48.199Z,93.89
2016-12-22T07:57:59.182Z,93.89
2016-12-22T07:59:10.167Z,94.18
2016-12-22T08:00:21.202Z,93.7
2016-12-22T08:01:32.185Z,93.42
2016-12-22T08:02:43.171Z,93.61
2016-12-22T08:03:54.159Z,93.42
2016-12-22T08:05:05.190Z,93.32
2016-12-22T08:06:16.179Z,93.13
2016-12-22T08:07:27.162Z,93.23
2016-12-22T08:08:38.148Z,93.32
2016-12-22T08:09:49.328Z,92.94
2016-12-22T08:11:00.330Z,93.04
2016-12-22T08:12:11.523Z,93.04
2016-12-22T08:13:22.706Z,92.85
2016-12-22T08:14:34.105Z,92.85
2016-12-22T08:15:45.139Z,92.85
2016-12-22T08:16:56.361Z,92.94
2016-12-22T08:18:07.546Z,92.85
2016-12-22T08:19:18.537Z,93.04
2016-12-22T08:20:29.524Z,92.66
2016-12-22T08:21:40.504Z,93.13
2016-12-22T08:22:51.490Z,93.04
2016-12-22T08:24:02.666Z,92.76
2016-12-22T08:25:13.696Z,93.04
2016-12-22T08:26:24.676Z,93.23
2016-12-22T08:27:35.665Z,93.32
2016-12-22T08:28:46.653Z,93.32
2016-12-22T08:29:57.647Z,93.13
2016-12-22T08:31:08.658Z,93.04
2016-12-22T08:32:19.854Z,93.23
2016-12-22T08:33:30.833Z,93.51
2016-12-22T08:34:41.832Z,93.32
2016-12-22T08:35:52.810Z,92.85
2016-12-22T08:37:03.993Z,93.23
2016-12-22T08:38:14.973Z,93.04
2016-12-22T08:39:26.159Z,92.76
2016-12-22T08:40:37.196Z,92.94
2016-12-22T08:41:48.387Z,92.85
2016-12-22T08:42:59.563Z,93.04
2016-12-22T08:44:10.553Z,93.04
2016-12-22T08:45:21.544Z,92.76
2016-12-22T08:46:32.726Z,92.94
2016-12-22T08:47:43.713Z,92.76
2016-12-22T08:48:54.694Z,92.66
2016-12-22T08:50:05.730Z,93.04
2016-12-22T08:51:16.715Z,92.28
2016-12-22T08:52:27.699Z,92.38
2016-12-22T08:53:38.689Z,92.57
2016-12-22T08:54:49.668Z,92.66
2016-12-22T08:56:00.651Z,92.57
2016-12-22T08:57:11.636Z,92.47
2016-12-22T08:58:22.628Z,92.66
2016-12-22T08:59:33.821Z,92.57
2016-12-22T09:00:45.003Z,92.66
2016-12-22T09:01:55.988Z,92.76
2016-12-22T09:03:06.984Z,92.47
2016-12-22T09:04:17.972Z,92.38
2016-12-22T09:05:29.007Z,92.57
2016-12-22T09:06:39.993Z,92.57
2016-12-22T09:07:51.178Z,92.47
2016-12-22T09:09:02.168Z,92.66
2016-12-22T09:10:13.145Z,93.13
2016-12-22T09:11:24.329Z,92.94
2016-12-22T09:12:35.314Z,92.28
2016-12-22T09:13:46.312Z,92.47
2016-12-22T09:14:57.304Z,92.38
2016-12-22T09:16:08.541Z,92.66
2016-12-22T09:17:19.525Z,92.76
2016-12-22T09:22:30.457Z,93.23
2016-12-22T09:23:41.441Z,93.23
2016-12-22T09:24:52.436Z,93.32
2016-12-22T09:26:03.472Z,93.61
2016-12-22T09:27:14.453Z,93.32
2016-12-22T09:28:25.440Z,93.61
2016-12-22T09:29:36.417Z,93.23
2016-12-22T09:30:47.401Z,93.51
2016-12-22T09:31:58.387Z,93.32
2016-12-22T09:33:09.375Z,93.7
2016-12-22T09:34:20.565Z,93.13
2016-12-22T09:35:31.547Z,93.42
2016-12-22T09:36:42.525Z,93.37
2016-12-22T09:37:53.537Z,93.61
2016-12-22T09:39:04.517Z,93.7
2016-12-22T09:40:15.501Z,93.51
2016-12-22T09:41:26.487Z,93.46
2016-12-22T09:42:37.669Z,93.56
2016-12-22T09:43:48.859Z,93.46
2016-12-22T09:45:00.038Z,93.46
2016-12-22T09:46:11.023Z,93.65
2016-12-22T09:47:22.409Z,93.56
2016-12-22T09:48:33.586Z,93.65
2016-12-22T09:49:44.565Z,94.32
2016-12-22T09:50:55.553Z,94.23
2016-12-22T09:52:06.540Z,93.84
2016-12-22T09:53:17.521Z,94.32
2016-12-22T09:54:28.499Z,94.6
2016-12-22T09:55:39.488Z,94.42
2016-12-22T09:56:50.474Z,94.79
2016-12-22T09:58:01.456Z,94.42
2016-12-22T09:59:12.440Z,94.32
2016-12-22T10:00:23.437Z,94.23
2016-12-22T10:01:34.428Z,94.13
2016-12-22T10:02:45.419Z,94.98
2016-12-22T10:03:56.410Z,94.51
2016-12-22T10:05:07.603Z,94.98
2016-12-22T10:06:18.787Z,95.26
2016-12-22T10:07:29.780Z,94.98
2016-12-22T10:08:40.769Z,95.26
2016-12-22T10:09:51.953Z,94.32
2016-12-22T10:11:02.947Z,95.17
2016-12-22T10:12:13.934Z,94.42
2016-12-22T10:13:24.916Z,94.6
2016-12-22T10:14:35.903Z,94.6
2016-12-22T10:15:46.890Z,94.51
2016-12-22T10:16:57.879Z,94.6
2016-12-22T10:18:08.858Z,94.42
2016-12-22T10:19:19.844Z,94.51
2016-12-22T10:20:30.832Z,94.51
2016-12-22T10:21:42.023Z,94.7
2016-12-22T10:22:53.013Z,94.6
2016-12-22T10:24:03.996Z,95.26
2016-12-22T10:25:14.988Z,94.23
2016-12-22T10:26:26.178Z,94.42
2016-12-22T10:27:37.563Z,94.89
2016-12-22T10:28:48.583Z,94.51
2016-12-22T10:29:59.573Z,94.6
2016-12-22T10:31:10.618Z,94.23
2016-12-22T10:32:21.803Z,94.6
2016-12-22T10:33:32.786Z,94.98
2016-12-22T10:34:43.780Z,94.98
2016-12-22T10:35:54.773Z,94.98
2016-12-22T10:37:05.760Z,94.79
2016-12-22T10:38:16.746Z,94.6
2016-12-22T10:39:27.732Z,94.6
2016-12-22T10:40:38.714Z,94.6
2016-12-22T10:41:49.697Z,94.6
2016-12-22T10:43:00.686Z,94.51
2016-12-22T10:44:11.672Z,94.51
2016-12-22T10:45:22.658Z,94.6
2016-12-22T10:46:33.837Z,94.89
2016-12-22T10:47:44.822Z,94.51
2016-12-22T10:48:56.008Z,94.32
2016-12-22T10:50:06.982Z,93.94
2016-12-22T10:51:17.976Z,94.23
2016-12-22T10:52:28.949Z,94.13
2016-12-22T10:53:39.939Z,94.13
2016-12-22T10:54:50.928Z,93.27
2016-12-22T10:56:01.916Z,93.46
2016-12-22T10:57:12.913Z,93.27
2016-12-22T10:58:23.898Z,93.56
2016-12-22T10:59:34.883Z,93.46
2016-12-22T11:00:45.986Z,93.84
2016-12-22T11:01:56.973Z,93.65
2016-12-22T11:03:07.959Z,93.46
2016-12-22T11:04:18.946Z,93.56
2016-12-22T11:05:30.134Z,93.37
2016-12-22T11:06:41.115Z,93.37
2016-12-22T11:07:52.100Z,92.9
2016-12-22T11:09:03.094Z,93.37
2016-12-22T11:10:14.132Z,93.46
2016-12-22T11:11:25.116Z,93.37
2016-12-22T11:12:36.135Z,93.37
2016-12-22T11:13:47.119Z,93.56
2016-12-22T11:14:58.111Z,93.37
2016-12-22T11:16:09.113Z,93.75
2016-12-22T11:17:20.096Z,94.13
2016-12-22T11:18:31.081Z,94.04
2016-12-22T11:19:42.269Z,94.23
2016-12-22T11:20:53.460Z,94.6
2016-12-22T11:22:04.448Z,94.37
2016-12-22T11:23:15.436Z,94.42
2016-12-22T11:24:26.419Z,94.74
2016-12-22T11:25:37.404Z,94.65
2016-12-22T11:26:48.391Z,94.46
2016-12-22T11:27:59.579Z,94.37
2016-12-22T11:29:10.567Z,94.37
2016-12-22T11:30:21.555Z,94.65
2016-12-22T11:31:32.540Z,94.65
2016-12-22T11:32:43.723Z,95.31
2016-12-22T11:33:54.710Z,94.46
2016-12-22T11:35:05.744Z,94.74
2016-12-22T11:36:16.732Z,94.46
2016-12-22T11:37:27.927Z,95.31
2016-12-22T11:38:38.913Z,94.74
2016-12-22T11:39:50.101Z,94.46
2016-12-22T11:41:01.087Z,94.27
2016-12-22T11:42:12.074Z,95.22
2016-12-22T11:43:23.060Z,94.56
2016-12-22T11:44:34.044Z,94.74
2016-12-22T11:45:45.046Z,94.65
2016-12-22T11:46:56.051Z,94.74
2016-12-22T11:48:07.243Z,94.93
2016-12-22T11:49:18.236Z,94.74
2016-12-22T11:50:29.278Z,94.37
2016-12-22T11:51:40.268Z,95.03
2016-12-22T11:52:51.262Z,95.31
2016-12-22T11:54:02.249Z,95.12
2016-12-22T11:55:13.431Z,94.46
2016-12-22T11:56:24.818Z,94.37
2016-12-22T11:57:35.807Z,94.46
2016-12-22T11:58:46.800Z,94.46
2016-12-22T11:59:57.792Z,94.56
2016-12-22T12:01:08.778Z,95.12
2016-12-22T12:02:19.769Z,94.93
2016-12-22T12:03:30.952Z,94.65
2016-12-22T12:04:41.941Z,94.65
2016-12-22T12:05:52.927Z,94.37
2016-12-22T12:07:03.919Z,94.37
2016-12-22T12:08:14.908Z,94.18
2016-12-22T12:09:25.901Z,94.37
2016-12-22T12:10:36.876Z,94.74
2016-12-22T12:11:47.856Z,94.37
2016-12-22T12:12:58.841Z,95.41
2016-12-22T12:14:09.832Z,94.93
2016-12-22T12:15:20.812Z,94.46
2016-12-22T12:16:31.789Z,94.65
2016-12-22T12:17:42.973Z,95.22
2016-12-22T12:18:53.989Z,95.12
2016-12-22T12:20:04.978Z,95.69
2016-12-22T12:21:15.961Z,95.22
2016-12-22T12:22:27.164Z,95.31
2016-12-22T12:23:38.358Z,95.6
2016-12-22T12:24:49.372Z,95.69
2016-12-22T12:26:00.371Z,95.69
2016-12-22T12:27:11.566Z,95.79
2016-12-22T12:28:22.550Z,95.31
2016-12-22T12:29:33.531Z,95.6
2016-12-22T12:30:44.566Z,95.41
2016-12-22T12:31:55.591Z,94.93
2016-12-22T12:33:06.578Z,94.56
2016-12-22T12:34:17.571Z,94.65
2016-12-22T12:35:28.609Z,95.12
2016-12-22T12:36:39.593Z,94.46
2016-12-22T12:37:50.787Z,94.46
2016-12-22T12:39:02.008Z,95.03
2016-12-22T12:40:13.021Z,95.12
2016-12-22T12:41:24.009Z,95.31
2016-12-22T12:42:35.180Z,95.41
2016-12-22T12:43:46.166Z,94.93
2016-12-22T12:44:57.161Z,95.79
2016-12-22T12:46:08.346Z,95.12
2016-12-22T12:47:19.337Z,95.12
2016-12-22T12:48:30.323Z,95.69
2016-12-22T12:49:41.347Z,95.31
2016-12-22T12:50:52.544Z,95.79
2016-12-22T12:52:03.737Z,95.98
2016-12-22T12:53:14.716Z,95.31
2016-12-22T12:54:26.096Z,95.22
2016-12-22T12:55:37.297Z,95.69
2016-12-22T12:56:48.491Z,95.98
2016-12-22T12:57:59.486Z,96.08
2016-12-22T12:59:10.474Z,96.08
2016-12-22T13:00:21.861Z,96.73
2016-12-22T13:01:32.850Z,96.73
2016-12-22T13:02:43.838Z,96.17
2016-12-22T13:03:54.824Z,96.17
2016-12-22T13:05:05.818Z,95.79
2016-12-22T13:06:16.848Z,95.79
2016-12-22T13:07:27.825Z,95.69
2016-12-22T13:08:38.811Z,96.36
2016-12-22T13:09:49.797Z,95.12
2016-12-22T13:11:00.866Z,94.84
2016-12-22T13:12:11.854Z,95.31
2016-12-22T13:13:23.038Z,94.93
2016-12-22T13:14:34.022Z,96.08
2016-12-22T13:15:45.008Z,95.79
2016-12-22T13:16:56.022Z,95.31
2016-12-22T13:18:07.005Z,95.41
2016-12-22T13:19:17.997Z,95.41
2016-12-22T13:20:29.177Z,95.31
2016-12-22T13:21:40.365Z,95.41
2016-12-22T13:22:51.550Z,95.41
2016-12-22T13:24:02.535Z,94.93
2016-12-22T13:25:13.520Z,95.12
2016-12-22T13:26:24.508Z,94.65
2016-12-22T13:27:35.492Z,94.56
2016-12-22T13:28:46.488Z,94.46
2016-12-22T13:29:57.474Z,94.08
2016-12-22T13:31:08.467Z,94.37
2016-12-22T13:32:19.454Z,94.18
2016-12-22T13:33:30.442Z,93.99
2016-12-22T13:34:41.437Z,93.89
2016-12-22T13:35:52.473Z,94.65
2016-12-22T13:37:03.462Z,94.18
2016-12-22T13:38:14.645Z,94.18
2016-12-22T13:39:25.834Z,94.08
2016-12-22T13:40:36.826Z,93.99
2016-12-22T13:41:47.861Z,93.89
2016-12-22T13:42:58.844Z,93.99
2016-12-22T13:44:09.831Z,94.18
2016-12-22T13:45:20.819Z,94.18
2016-12-22T13:46:31.802Z,94.08
2016-12-22T13:47:42.838Z,93.51
2016-12-22T13:48:53.826Z,93.51
2016-12-22T13:50:04.815Z,93.8
2016-12-22T13:51:15.802Z,93.41
2016-12-22T13:52:26.785Z,94.27
2016-12-22T13:53:37.823Z,93.7
2016-12-22T13:54:48.829Z,93.99
2016-12-22T13:56:00.020Z,94.18
2016-12-22T13:57:11.002Z,93.61
2016-12-22T13:58:22.020Z,93.99
2016-12-22T13:59:33.061Z,94.37
2016-12-22T14:00:44.052Z,94.18
2016-12-22T14:01:55.049Z,94.18
2016-12-22T14:03:06.033Z,93.99
2016-12-22T14:04:17.028Z,94.46
2016-12-22T14:05:28.259Z,93.51
2016-12-22T14:06:39.241Z,93.32
2016-12-22T14:07:50.431Z,93.7
2016-12-22T14:09:01.423Z,93.7
2016-12-22T14:10:12.408Z,93.13
2016-12-22T14:11:23.443Z,92.94
2016-12-22T14:12:34.633Z,92.85
2016-12-22T14:13:45.623Z,93.23
2016-12-22T14:14:56.609Z,93.23
2016-12-22T14:16:07.999Z,93.61
2016-12-22T14:17:19.028Z,93.61
2016-12-22T14:18:30.005Z,93.61
2016-12-22T14:19:40.991Z,93.7
2016-12-22T14:20:51.970Z,93.32
2016-12-22T14:22:03.153Z,93.51
2016-12-22T14:23:14.391Z,93.7
2016-12-22T14:24:25.379Z,93.32
2016-12-22T14:25:36.386Z,94.27
2016-12-22T14:26:47.380Z,94.27
2016-12-22T14:27:58.375Z,93.7
2016-12-22T14:29:09.820Z,93.61
2016-12-22T14:30:20.808Z,93.51
2016-12-22T14:31:31.994Z,93.61
2016-12-22T14:32:42.976Z,93.51
2016-12-22T14:33:53.961Z,93.7
2016-12-22T14:35:05.003Z,93.61
2016-12-22T14:36:15.998Z,93.41
2016-12-22T14:37:26.984Z,93.32
2016-12-22T14:38:37.970Z,93.04
2016-12-22T14:39:48.962Z,93.13
2016-12-22T14:40:59.997Z,93.23
2016-12-22T14:42:10.991Z,93.41
2016-12-22T14:43:21.986Z,93.7
2016-12-22T14:44:32.977Z,93.7
2016-12-22T14:45:43.967Z,93.32
2016-12-22T14:46:55.214Z,93.32
2016-12-22T14:48:06.207Z,93.61
2016-12-22T14:49:17.196Z,93.23
2016-12-22T14:50:28.188Z,92.85
2016-12-22T14:51:39.172Z,92.94
2016-12-22T14:52:50.204Z,92.76
2016-12-22T14:54:01.190Z,93.23
2016-12-22T14:55:12.181Z,93.32
2016-12-22T14:56:23.171Z,93.04
2016-12-22T14:57:34.156Z,93.7
2016-12-22T14:58:45.188Z,94.27
2016-12-22T14:59:56.169Z,94.37
2016-12-22T15:01:07.154Z,93.7
2016-12-22T15:02:18.147Z,93.99
2016-12-22T15:03:29.141Z,93.8
2016-12-22T15:04:40.172Z,93.7
2016-12-22T15:05:51.164Z,93.51
2016-12-22T15:07:02.181Z,94.56
2016-12-22T15:08:13.174Z,94.18
2016-12-22T15:09:24.372Z,94.37
2016-12-22T15:10:35.611Z,94.27
2016-12-22T15:11:46.594Z,94.18
2016-12-22T15:12:57.578Z,94.27
2016-12-22T15:14:08.558Z,93.51
2016-12-22T15:15:19.558Z,93.51
2016-12-22T15:16:30.596Z,93.41
2016-12-22T15:17:41.589Z,93.61
2016-12-22T15:18:52.585Z,93.51
2016-12-22T15:20:03.778Z,93.61
2016-12-22T15:21:14.773Z,93.7